Terminal Aerodrome Forecast
Issued by NWS

Home | Current Version | Previous Version | Text Only | Print | Product List | Glossary On
Versions: 1 2 3 4 5 6 7 8 9 10 11 12 13
500
FTUS45 KRIW 091125
TAFCPR
TAF
KCPR 091125Z 0912/1012 23006KT P6SM SCT100 BKN200 WS020/25030KT
     FM091500 22014G24KT P6SM SCT100 BKN200
     FM100500 22020G30KT P6SM BKN100=

USA.gov is the U.S. government's official web portal to all federal, state and local government web resources and services.